Time;durP1;ratioP1;P1;durP2;ratioP2;P2;SDS_P1;SDS_P2;PMS_P1;PMS_P2;Temp;Humidity;BMP_temperature;BMP_pressure;BME280_temperature;BME280_humidity;BME280_pressure;Samples;Min_cycle;Max_cycle;Signal;HPM_P1;HPM_P2
2023/10/31 00:00:34;;;;;;;17.90;10.38;;;;;;;12.84;89.44;100678.78;5052212;28;20021;-70
2023/10/31 00:03:00;;;;;;;22.95;9.57;;;;;;;12.85;89.03;100686.59;5071222;28;20111;-69
2023/10/31 00:05:25;;;;;;;16.58;9.30;;;;;;;13.02;88.68;100681.94;5070249;28;20143;-71
2023/10/31 00:07:51;;;;;;;19.45;9.07;;;;;;;12.92;88.09;100679.88;5070172;28;20028;-68
2023/10/31 00:10:16;;;;;;;18.67;9.80;;;;;;;13.01;88.33;100676.69;5069959;28;20021;-67
2023/10/31 00:12:42;;;;;;;20.00;10.25;;;;;;;12.99;88.22;100673.19;5070921;28;20032;-69
2023/10/31 00:15:07;;;;;;;17.20;9.77;;;;;;;13.08;87.65;100676.06;5069698;28;20036;-69
2023/10/31 00:17:33;;;;;;;16.95;9.07;;;;;;;13.02;87.44;100661.22;5070363;28;20047;-70
2023/10/31 00:19:58;;;;;;;16.73;9.30;;;;;;;12.95;87.12;100662.72;5070022;28;20083;-70
2023/10/31 00:22:24;;;;;;;18.60;10.48;;;;;;;13.00;87.15;100668.06;5012878;28;20567;-70
2023/10/31 00:24:49;;;;;;;17.88;9.15;;;;;;;13.05;85.25;100666.47;5015754;28;20037;-69
2023/10/31 00:27:15;;;;;;;18.83;9.02;;;;;;;13.06;82.99;100662.16;5016322;28;20041;-70
2023/10/31 00:29:40;;;;;;;15.70;9.13;;;;;;;12.99;84.20;100642.09;5014351;28;20201;-68
2023/10/31 00:32:06;;;;;;;16.45;9.57;;;;;;;13.01;85.11;100668.94;5016578;28;20038;-71
2023/10/31 00:34:31;;;;;;;48.05;16.70;;;;;;;12.67;86.27;100653.22;5017640;28;20106;-67
2023/10/31 00:36:57;;;;;;;44.10;20.00;;;;;;;12.49;87.22;100657.84;5015180;28;20459;-71
2023/10/31 00:39:22;;;;;;;44.85;18.95;;;;;;;12.50;87.35;100657.88;5010913;28;20069;-67
2023/10/31 00:41:48;;;;;;;42.67;17.25;;;;;;;12.38;87.54;100644.53;5017878;28;20050;-67
2023/10/31 00:44:13;;;;;;;40.95;19.25;;;;;;;12.28;87.58;100638.19;5015313;28;20096;-67
2023/10/31 00:46:39;;;;;;;43.28;17.20;;;;;;;12.41;87.58;100650.69;5014476;28;20503;-67
2023/10/31 00:49:05;;;;;;;35.35;16.25;;;;;;;12.32;88.08;100649.53;5018483;28;20118;-72
2023/10/31 00:51:30;;;;;;;39.97;17.35;;;;;;;12.36;88.02;100648.78;5008707;28;20034;-68
2023/10/31 00:53:56;;;;;;;38.97;18.73;;;;;;;12.16;88.58;100645.53;5055745;28;20047;-67
2023/10/31 00:56:41;;;;;;;42.05;18.38;;;;;;;12.15;89.22;100647.25;5036563;28;20065;-66
2023/10/31 00:59:07;;;;;;;40.70;17.55;;;;;;;11.79;88.92;100571.00;5047077;28;20040;-68
2023/10/31 01:01:32;;;;;;;39.97;17.30;;;;;;;11.90;89.01;100580.81;5047484;28;20484;-67
2023/10/31 01:03:58;;;;;;;33.70;16.45;;;;;;;12.21;89.27;100647.47;5046736;28;20033;-67
2023/10/31 01:06:23;;;;;;;33.55;15.93;;;;;;;12.16;89.78;100630.00;5047346;28;20609;-67
2023/10/31 01:08:49;;;;;;;32.03;14.27;;;;;;;12.05;90.61;100633.13;5046399;28;20036;-67
2023/10/31 01:11:14;;;;;;;28.95;13.10;;;;;;;11.99;91.89;100640.69;5045810;28;20040;-68
2023/10/31 01:13:40;;;;;;;21.73;10.98;;;;;;;12.03;92.65;100644.25;5047150;28;20021;-68
2023/10/31 01:16:06;;;;;;;15.50;8.63;;;;;;;11.95;96.45;100647.44;5045979;28;20052;-68
2023/10/31 01:18:31;;;;;;;23.02;8.88;;;;;;;11.50;96.44;100549.31;5046281;28;20029;-67
2023/10/31 01:20:57;;;;;;;30.50;13.25;;;;;;;12.07;93.19;100631.44;5046417;28;20024;-67
2023/10/31 01:23:22;;;;;;;27.65;13.15;;;;;;;12.19;89.81;100632.72;5045463;28;20044;-68
2023/10/31 01:25:48;;;;;;;27.83;13.57;;;;;;;11.97;87.36;100570.78;5045808;28;20056;-67
2023/10/31 01:28:13;;;;;;;18.45;9.32;;;;;;;12.21;94.48;100634.53;5054967;28;20763;-67
2023/10/31 01:30:39;;;;;;;18.88;8.70;;;;;;;12.03;96.89;100632.19;5068876;28;20078;-67
2023/10/31 01:33:04;;;;;;;13.55;8.05;;;;;;;11.87;97.88;100635.06;5058275;28;20082;-69
2023/10/31 01:35:30;;;;;;;19.02;8.05;;;;;;;11.68;99.41;100631.84;5069060;28;20042;-67
2023/10/31 01:37:55;;;;;;;12.00;6.22;;;;;;;11.02;100.00;100549.38;5069068;28;20041;-68
2023/10/31 01:40:21;;;;;;;13.35;6.32;;;;;;;11.27;100.00;100615.72;5068306;28;20097;-68
2023/10/31 01:42:46;;;;;;;13.77;6.20;;;;;;;11.27;100.00;100624.34;5069612;28;20063;-67
2023/10/31 01:45:12;;;;;;;11.30;5.75;;;;;;;11.00;100.00;100554.44;5068661;28;20461;-71
2023/10/31 01:47:37;;;;;;;10.27;5.95;;;;;;;11.27;100.00;100595.91;5069180;28;20029;-66
2023/10/31 01:50:05;;;;;;;10.40;5.97;;;;;;;11.41;100.00;100613.63;5069674;28;20059;-67
2023/10/31 01:52:32;;;;;;;13.25;6.60;;;;;;;11.51;100.00;100615.72;5068841;28;20024;-68
2023/10/31 01:54:59;;;;;;;13.88;7.22;;;;;;;11.53;99.34;100623.53;5068396;28;20049;-68
2023/10/31 01:57:24;;;;;;;27.83;12.13;;;;;;;11.64;95.76;100617.03;5068555;28;20116;-68
2023/10/31 01:59:50;;;;;;;29.63;13.20;;;;;;;11.73;91.47;100619.94;5068339;28;20112;-67
2023/10/31 02:02:16;;;;;;;27.05;12.32;;;;;;;11.76;90.40;100604.53;5069473;28;20024;-68
2023/10/31 02:04:42;;;;;;;28.77;13.40;;;;;;;11.95;88.88;100629.31;5068463;28;20070;-67
2023/10/31 02:07:07;;;;;;;27.25;11.35;;;;;;;11.97;87.13;100624.22;5068441;28;20035;-69
2023/10/31 02:09:33;;;;;;;27.63;11.57;;;;;;;11.71;84.79;100569.00;5068836;28;20032;-67
2023/10/31 02:11:58;;;;;;;31.38;12.85;;;;;;;12.16;84.16;100630.00;5068493;28;20074;-67
2023/10/31 02:14:24;;;;;;;25.88;11.20;;;;;;;12.18;83.54;100629.22;5068036;28;20086;-66
2023/10/31 02:16:49;;;;;;;20.95;10.02;;;;;;;12.08;81.80;100630.63;5068402;28;20068;-67
2023/10/31 02:19:19;;;;;;;21.98;10.32;;;;;;;12.07;80.99;100634.03;5068159;28;20020;-67
2023/10/31 02:21:45;;;;;;;22.40;9.98;;;;;;;12.10;82.26;100628.09;5046182;28;20657;-68
2023/10/31 02:24:10;;;;;;;20.17;10.73;;;;;;;11.60;83.01;100558.25;5044923;28;20075;-66
2023/10/31 02:26:36;;;;;;;20.10;11.40;;;;;;;11.38;83.98;100526.53;5044475;28;20526;-67
2023/10/31 02:29:01;;;;;;;19.23;9.85;;;;;;;11.96;84.01;100619.88;5045719;28;20084;-67
2023/10/31 02:31:27;;;;;;;21.17;10.10;;;;;;;11.96;83.91;100619.88;5046409;28;20048;-68
2023/10/31 02:33:53;;;;;;;22.33;9.85;;;;;;;11.97;83.63;100619.94;5045369;28;20112;-67
2023/10/31 02:36:19;;;;;;;24.98;10.43;;;;;;;11.85;83.04;100613.41;5046959;28;20036;-67
2023/10/31 02:38:45;;;;;;;18.67;9.20;;;;;;;11.88;82.05;100603.19;5009827;28;20057;-66
2023/10/31 02:41:11;;;;;;;18.80;9.27;;;;;;;11.27;80.22;100522.69;5009799;28;20042;-69
2023/10/31 02:43:38;;;;;;;21.67;10.15;;;;;;;11.70;79.82;100631.88;5010425;28;20034;-67
2023/10/31 02:46:03;;;;;;;25.00;10.00;;;;;;;11.52;79.88;100629.53;5010027;28;20030;-67
2023/10/31 02:48:31;;;;;;;21.23;10.35;;;;;;;11.27;80.33;100590.75;5009707;28;20046;-67
2023/10/31 02:50:57;;;;;;;22.10;9.75;;;;;;;11.51;80.43;100628.63;5009553;28;20033;-67
2023/10/31 02:53:23;;;;;;;22.75;10.05;;;;;;;11.46;81.67;100625.00;5008435;28;20596;-67
2023/10/31 02:55:49;;;;;;;23.05;10.18;;;;;;;11.11;83.57;100622.91;5009430;28;20103;-68
2023/10/31 02:58:14;;;;;;;22.48;9.02;;;;;;;11.17;84.62;100630.88;5009977;28;20125;-68
2023/10/31 03:00:40;;;;;;;19.73;9.77;;;;;;;11.07;85.27;100626.19;5009266;28;20038;-68
2023/10/31 03:03:05;;;;;;;20.55;10.55;;;;;;;11.04;87.04;100633.84;5009654;28;20169;-68
2023/10/31 03:05:31;;;;;;;20.35;9.88;;;;;;;10.82;89.04;100640.75;5009740;28;20435;-68
2023/10/31 03:07:56;;;;;;;22.73;10.13;;;;;;;10.63;90.62;100620.19;5008806;28;20034;-66
2023/10/31 03:10:22;;;;;;;20.58;9.57;;;;;;;10.69;90.67;100630.78;5047901;28;20883;-68
2023/10/31 03:12:48;;;;;;;17.75;9.52;;;;;;;10.47;90.93;100598.09;5072017;28;20032;-70
2023/10/31 03:15:33;;;;;;;22.83;10.48;;;;;;;10.70;90.62;100618.75;5020974;28;20118;-68
2023/10/31 03:17:58;;;;;;;22.42;10.82;;;;;;;10.72;90.92;100645.53;5027345;28;20531;-68
2023/10/31 03:20:24;;;;;;;20.15;9.60;;;;;;;10.85;90.64;100634.84;5038680;28;20040;-68
2023/10/31 03:22:50;;;;;;;25.10;9.40;;;;;;;10.54;90.23;100563.06;5029433;28;20033;-66
2023/10/31 03:25:15;;;;;;;23.92;10.50;;;;;;;10.91;90.68;100627.31;5027548;28;20037;-68
2023/10/31 03:27:40;;;;;;;21.95;10.98;;;;;;;10.96;90.29;100624.91;5026288;28;20598;-68
2023/10/31 03:30:07;;;;;;;21.88;9.30;;;;;;;11.01;85.94;100628.56;5025778;28;20124;-73
2023/10/31 03:32:32;;;;;;;19.77;8.77;;;;;;;11.09;85.13;100621.06;5020559;28;20041;-67
2023/10/31 03:34:57;;;;;;;24.85;11.02;;;;;;;10.92;85.45;100592.91;5011723;28;20037;-68
2023/10/31 03:37:23;;;;;;;23.08;9.50;;;;;;;11.03;85.63;100618.25;5025935;28;20044;-67
2023/10/31 03:39:48;;;;;;;22.52;10.40;;;;;;;10.92;87.49;100613.59;5018985;28;20476;-68
2023/10/31 03:42:14;;;;;;;18.30;8.98;;;;;;;10.86;89.01;100615.94;5029088;28;20032;-67
2023/10/31 03:44:39;;;;;;;18.20;9.98;;;;;;;10.59;88.40;100575.34;5028522;28;20029;-68
2023/10/31 03:47:05;;;;;;;20.88;10.55;;;;;;;10.51;88.51;100536.31;5027520;28;20069;-67
2023/10/31 03:49:30;;;;;;;30.60;10.50;;;;;;;10.77;88.94;100616.47;5027938;28;20028;-67
2023/10/31 03:51:56;;;;;;;18.17;9.13;;;;;;;10.78;89.44;100604.41;4994941;28;20044;-66
2023/10/31 03:54:21;;;;;;;22.58;9.65;;;;;;;10.89;89.70;100604.84;5069377;28;20032;-68
2023/10/31 03:56:48;;;;;;;18.20;9.43;;;;;;;10.71;89.57;100613.66;5070642;28;20040;-66
2023/10/31 03:59:14;;;;;;;14.65;9.25;;;;;;;10.65;90.90;100618.56;5070855;28;20032;-67
2023/10/31 04:01:40;;;;;;;21.23;9.48;;;;;;;10.63;91.49;100607.28;5070941;28;20032;-68
2023/10/31 04:04:06;;;;;;;21.65;10.15;;;;;;;10.61;90.81;100616.69;5070009;28;20032;-67
2023/10/31 04:06:31;;;;;;;15.38;9.23;;;;;;;10.65;87.47;100609.13;5070539;28;20109;-67
2023/10/31 04:08:57;;;;;;;20.67;9.20;;;;;;;10.72;88.15;100605.09;5071344;28;20371;-66
2023/10/31 04:11:22;;;;;;;19.08;10.23;;;;;;;10.82;88.63;100596.84;5070015;28;20035;-68
2023/10/31 04:13:48;;;;;;;18.05;8.93;;;;;;;10.75;89.02;100588.81;5070191;28;20489;-68
2023/10/31 04:16:13;;;;;;;19.50;9.35;;;;;;;10.82;89.91;100606.31;5070666;28;20020;-69
2023/10/31 04:18:39;;;;;;;17.98;10.18;;;;;;;10.90;89.29;100599.72;5069916;28;20028;-68
2023/10/31 04:21:04;;;;;;;19.15;8.75;;;;;;;10.95;87.91;100608.56;5069996;28;20038;-69
2023/10/31 04:23:30;;;;;;;19.45;9.73;;;;;;;10.56;86.19;100517.53;5069865;28;20028;-68
2023/10/31 04:25:55;;;;;;;18.73;9.73;;;;;;;11.04;84.71;100602.84;5070072;28;20116;-69
2023/10/31 04:28:21;;;;;;;19.38;9.60;;;;;;;10.98;83.60;100600.91;5070568;28;20026;-66
2023/10/31 04:30:46;;;;;;;20.30;9.93;;;;;;;10.95;83.42;100602.47;5051563;28;20032;-71
2023/10/31 04:33:12;;;;;;;20.65;10.20;;;;;;;10.91;83.98;100588.56;5069880;28;20050;-68
2023/10/31 04:35:37;;;;;;;23.90;9.48;;;;;;;10.86;84.58;100577.19;5065134;28;20076;-66
2023/10/31 04:38:03;;;;;;;21.75;10.65;;;;;;;10.80;85.47;100601.09;5070201;28;20039;-68
2023/10/31 04:40:28;;;;;;;40.30;11.57;;;;;;;10.56;86.75;100597.56;5069899;28;20028;-66
2023/10/31 04:42:54;;;;;;;95.63;13.57;;;;;;;10.17;87.38;100528.94;5070651;28;20032;-67
2023/10/31 04:45:20;;;;;;;25.80;10.00;;;;;;;10.39;87.90;100589.16;5069623;28;20468;-66
2023/10/31 04:47:45;;;;;;;31.85;10.95;;;;;;;10.20;90.85;100593.53;5069636;28;20066;-68
2023/10/31 04:50:11;;;;;;;25.40;10.55;;;;;;;9.62;92.94;100555.91;5068982;28;20040;-67
2023/10/31 04:52:38;;;;;;;24.08;10.15;;;;;;;9.78;94.31;100627.06;5069189;28;20032;-67
2023/10/31 04:55:04;;;;;;;19.00;10.15;;;;;;;9.69;94.53;100624.97;5069860;28;20105;-67
2023/10/31 04:57:29;;;;;;;23.17;10.40;;;;;;;9.74;94.40;100618.31;5069607;28;20037;-67
2023/10/31 04:59:57;;;;;;;23.85;11.82;;;;;;;9.61;95.19;100622.06;5068693;28;20029;-68
2023/10/31 05:02:23;;;;;;;23.73;10.00;;;;;;;9.70;95.38;100634.47;5068902;28;20035;-69
2023/10/31 05:04:51;;;;;;;19.27;10.15;;;;;;;9.78;95.00;100627.94;5069485;28;20123;-67
2023/10/31 05:07:18;;;;;;;20.58;9.77;;;;;;;9.63;95.11;100628.19;5068809;28;20116;-66
2023/10/31 05:09:43;;;;;;;19.65;10.43;;;;;;;9.46;96.17;100624.84;5051776;28;20471;-68
2023/10/31 05:12:09;;;;;;;169.43;18.88;;;;;;;9.44;97.44;100638.50;5069223;28;20031;-71
2023/10/31 05:14:35;;;;;;;35.53;10.57;;;;;;;8.96;97.31;100562.56;5068913;28;20032;-68
2023/10/31 05:17:00;;;;;;;26.33;9.70;;;;;;;9.38;98.09;100634.84;5067685;28;20078;-66
2023/10/31 05:19:26;;;;;;;18.17;9.23;;;;;;;9.31;98.56;100631.88;5066376;28;20025;-66
2023/10/31 05:21:51;;;;;;;21.85;9.38;;;;;;;9.27;98.91;100619.69;5068930;28;20079;-67
2023/10/31 05:24:17;;;;;;;19.55;9.02;;;;;;;9.35;98.93;100624.38;5068207;28;20040;-67
2023/10/31 05:26:43;;;;;;;24.05;9.23;;;;;;;9.51;99.00;100628.50;5069008;28;20127;-66
2023/10/31 05:29:09;;;;;;;19.58;8.65;;;;;;;9.62;99.08;100636.72;5068890;28;20052;-71
2023/10/31 05:31:34;;;;;;;17.80;9.13;;;;;;;9.59;99.81;100630.53;5068859;28;20036;-66
2023/10/31 05:34:01;;;;;;;16.20;8.63;;;;;;;9.31;99.89;100554.59;5069026;28;20107;-67
2023/10/31 05:36:27;;;;;;;14.20;7.50;;;;;;;9.98;99.71;100633.03;5068847;28;20039;-67
2023/10/31 05:38:53;;;;;;;16.38;8.20;;;;;;;10.09;99.28;100634.38;5051856;28;20058;-67
2023/10/31 05:41:19;;;;;;;19.25;8.77;;;;;;;10.23;97.38;100636.66;5026947;28;20044;-68
2023/10/31 05:43:44;;;;;;;20.75;9.55;;;;;;;10.36;95.09;100615.72;5069061;28;20123;-67
2023/10/31 05:46:10;;;;;;;27.50;11.65;;;;;;;10.67;91.81;100635.00;5069266;28;20108;-67
2023/10/31 05:48:39;;;;;;;18.80;9.23;;;;;;;10.84;90.68;100644.28;5069119;28;20043;-67
2023/10/31 05:51:15;;;;;;;20.63;9.80;;;;;;;10.95;91.61;100643.81;5068789;28;20055;-67
2023/10/31 05:53:41;;;;;;;22.17;9.73;;;;;;;11.05;90.09;100640.75;5045496;28;20042;-67
2023/10/31 05:56:08;;;;;;;18.95;9.45;;;;;;;11.06;90.25;100633.91;5069455;28;20048;-67
2023/10/31 05:58:34;;;;;;;19.15;9.63;;;;;;;11.14;91.54;100643.69;5068085;28;20518;-67
2023/10/31 06:00:59;;;;;;;20.35;11.52;;;;;;;10.65;94.16;100573.00;5068684;28;20029;-67
2023/10/31 06:03:25;;;;;;;22.30;11.85;;;;;;;10.65;96.86;100644.38;5068089;28;20028;-67
2023/10/31 06:05:50;;;;;;;18.83;11.05;;;;;;;10.68;97.08;100639.38;5068959;28;20115;-67
2023/10/31 06:08:16;;;;;;;26.33;12.13;;;;;;;10.86;95.86;100649.50;5068486;28;20057;-67
2023/10/31 06:10:42;;;;;;;20.63;11.98;;;;;;;10.84;97.20;100645.97;5070963;28;20033;-67
2023/10/31 06:13:07;;;;;;;31.75;12.07;;;;;;;10.82;96.85;100621.81;5073345;28;20502;-67
2023/10/31 06:15:36;;;;;;;35.22;13.13;;;;;;;10.42;99.22;100553.13;5071531;28;20551;-68
2023/10/31 06:18:02;;;;;;;145.43;22.63;;;;;;;10.99;99.55;100619.84;5069201;28;20025;-67
2023/10/31 06:20:28;;;;;;;150.13;21.77;;;;;;;11.00;100.00;100631.94;5054677;28;20035;-68
2023/10/31 06:22:54;;;;;;;52.38;13.32;;;;;;;10.99;100.00;100640.53;5071626;28;20041;-66
2023/10/31 06:25:19;;;;;;;25.75;12.95;;;;;;;11.23;100.00;100639.72;5072750;28;20029;-66
2023/10/31 06:27:45;;;;;;;17.42;11.95;;;;;;;11.55;100.00;100634.81;5054002;28;20064;-65
2023/10/31 06:30:11;;;;;;;19.42;11.30;;;;;;;11.46;99.07;100579.38;5071623;28;20036;-69
2023/10/31 06:32:36;;;;;;;20.80;10.40;;;;;;;12.03;98.81;100641.66;5072398;28;20518;-68
2023/10/31 06:35:02;;;;;;;17.42;9.65;;;;;;;12.18;97.66;100643.91;5072074;28;20036;-65
2023/10/31 06:37:28;;;;;;;18.80;10.50;;;;;;;12.29;97.03;100633.03;5072120;28;20111;-66
2023/10/31 06:39:54;;;;;;;18.58;10.52;;;;;;;12.48;96.83;100645.72;5071740;28;20025;-67
2023/10/31 06:42:20;;;;;;;23.80;11.27;;;;;;;12.62;96.41;100634.06;5072283;28;20497;-66
2023/10/31 06:44:45;;;;;;;20.17;11.32;;;;;;;12.81;97.82;100632.94;5067988;28;20032;-67
2023/10/31 06:47:11;;;;;;;22.40;13.18;;;;;;;12.92;97.01;100622.88;5073144;28;20031;-67
2023/10/31 06:49:36;;;;;;;18.35;10.48;;;;;;;13.03;95.73;100626.66;5053629;28;20025;-66
2023/10/31 06:52:03;;;;;;;18.75;9.88;;;;;;;13.17;95.45;100640.06;5070666;28;20032;-69
2023/10/31 06:54:28;;;;;;;24.50;11.02;;;;;;;13.30;94.08;100638.69;5071564;28;20032;-64
2023/10/31 06:56:53;;;;;;;18.05;10.82;;;;;;;13.46;93.78;100632.25;5071025;28;20040;-68
2023/10/31 06:59:19;;;;;;;21.23;11.07;;;;;;;13.22;92.36;100559.81;5007971;28;20042;-67
2023/10/31 07:01:46;;;;;;;25.70;11.85;;;;;;;13.59;91.79;100608.41;5005119;28;20042;-65
2023/10/31 07:04:13;;;;;;;25.05;11.60;;;;;;;13.52;92.65;100622.06;5004680;28;20089;-66
2023/10/31 07:06:39;;;;;;;23.70;10.55;;;;;;;13.11;92.06;100536.19;5006561;28;20590;-66
2023/10/31 07:09:05;;;;;;;22.63;10.40;;;;;;;13.62;91.69;100630.97;5009818;28;20042;-64
2023/10/31 07:11:33;;;;;;;19.55;10.23;;;;;;;13.69;91.63;100624.22;5004128;28;20488;-66
2023/10/31 07:14:02;;;;;;;19.38;10.32;;;;;;;13.79;92.09;100625.34;5010105;28;20042;-66
2023/10/31 07:16:27;;;;;;;21.67;9.73;;;;;;;13.84;92.15;100623.72;4998315;28;20034;-64
2023/10/31 07:18:53;;;;;;;20.77;10.88;;;;;;;13.99;93.40;100625.84;5006097;28;20049;-72
2023/10/31 07:21:18;;;;;;;30.48;10.82;;;;;;;13.69;93.80;100560.22;4997237;28;20038;-65
2023/10/31 07:23:44;;;;;;;17.77;9.18;;;;;;;14.07;94.62;100617.41;5006648;28;20060;-65
2023/10/31 07:26:10;;;;;;;17.60;8.82;;;;;;;14.14;94.75;100621.03;5003856;28;20092;-66
2023/10/31 07:28:36;;;;;;;16.77;9.23;;;;;;;14.19;99.12;100622.03;5007564;28;20037;-64
2023/10/31 07:31:02;;;;;;;25.83;10.73;;;;;;;14.14;100.00;100631.41;5058351;28;20075;-66
2023/10/31 07:33:27;;;;;;;23.20;10.77;;;;;;;13.71;100.00;100563.75;5068116;28;20071;-67
2023/10/31 07:35:53;;;;;;;23.23;12.02;;;;;;;14.19;100.00;100616.84;5069205;28;20060;-66
2023/10/31 07:38:18;;;;;;;23.90;12.50;;;;;;;14.27;100.00;100614.44;5071493;28;20028;-65
2023/10/31 07:40:43;;;;;;;27.20;15.88;;;;;;;14.44;100.00;100612.22;5070510;28;20477;-67
2023/10/31 07:43:09;;;;;;;25.85;10.45;;;;;;;14.36;100.00;100618.97;5071200;28;20036;-64
2023/10/31 07:45:35;;;;;;;19.60;9.85;;;;;;;14.14;100.00;100627.94;5071233;28;20040;-66
2023/10/31 07:48:01;;;;;;;14.55;9.65;;;;;;;14.42;100.00;100629.50;5071165;28;20086;-68
2023/10/31 07:50:27;;;;;;;20.02;9.60;;;;;;;14.61;100.00;100630.81;5070709;28;20033;-65
2023/10/31 07:52:53;;;;;;;13.43;8.60;;;;;;;14.80;100.00;100613.06;5070657;28;20028;-64
2023/10/31 07:55:20;;;;;;;17.02;9.07;;;;;;;15.03;100.00;100613.56;5071152;28;20059;-66
2023/10/31 07:57:45;;;;;;;23.02;12.50;;;;;;;15.29;100.00;100618.41;5070997;28;20055;-68
2023/10/31 08:00:12;;;;;;;16.23;9.05;;;;;;;15.52;100.00;100621.47;5070205;28;20479;-67
2023/10/31 08:02:37;;;;;;;16.88;9.27;;;;;;;15.61;100.00;100615.56;5071024;28;20512;-66
2023/10/31 08:05:03;;;;;;;14.80;8.52;;;;;;;15.69;100.00;100588.81;5070720;28;20032;-66
2023/10/31 08:07:30;;;;;;;12.68;8.80;;;;;;;14.69;100.00;100385.03;5070299;28;20402;-66
2023/10/31 08:09:56;;;;;;;16.08;8.52;;;;;;;15.87;100.00;100543.16;5052440;28;20463;-67
2023/10/31 08:12:21;;;;;;;19.90;8.77;;;;;;;16.28;100.00;100602.84;5070546;28;20024;-65
2023/10/31 08:14:47;;;;;;;15.35;9.00;;;;;;;16.42;100.00;100596.97;5070204;28;20059;-71
2023/10/31 08:17:12;;;;;;;15.38;8.75;;;;;;;16.59;100.00;100598.09;5070102;28;20025;-66
2023/10/31 08:19:38;;;;;;;16.63;9.02;;;;;;;16.77;100.00;100592.28;5070071;28;20024;-66
2023/10/31 08:22:03;;;;;;;20.05;10.63;;;;;;;16.77;100.00;100580.97;5070220;28;20097;-68
2023/10/31 08:24:29;;;;;;;20.02;10.07;;;;;;;16.91;100.00;100579.44;5070231;28;20159;-66
2023/10/31 08:26:54;;;;;;;15.35;9.60;;;;;;;17.01;100.00;100575.22;5069819;28;20028;-66
2023/10/31 08:29:20;;;;;;;14.57;9.00;;;;;;;17.20;100.00;100571.09;5056656;28;20028;-66
2023/10/31 08:31:45;;;;;;;15.85;9.70;;;;;;;17.28;100.00;100573.78;5071008;28;20032;-68
2023/10/31 08:34:10;;;;;;;61.97;31.67;;;;;;;17.46;100.00;100576.59;5069619;28;20094;-66
2023/10/31 08:36:36;;;;;;;26.00;11.35;;;;;;;17.22;100.00;100518.91;5051705;28;20043;-66
2023/10/31 08:39:03;;;;;;;21.90;10.38;;;;;;;17.56;100.00;100577.56;5069721;28;20032;-67
2023/10/31 08:41:29;;;;;;;18.02;9.23;;;;;;;17.64;100.00;100569.81;5069790;28;20024;-67
2023/10/31 08:43:54;;;;;;;34.03;12.00;;;;;;;17.83;100.00;100572.59;5070522;28;20375;-67
2023/10/31 08:46:19;;;;;;;60.78;18.20;;;;;;;18.00;100.00;100570.16;5069604;28;20041;-67
2023/10/31 08:48:45;;;;;;;110.30;30.98;;;;;;;17.78;100.00;100515.97;5069713;28;20123;-66
2023/10/31 08:51:11;;;;;;;49.97;19.67;;;;;;;17.96;100.00;100517.00;5069489;28;20040;-64
2023/10/31 08:53:36;;;;;;;21.33;11.20;;;;;;;18.30;100.00;100558.19;5069429;28;20044;-70
2023/10/31 08:56:01;;;;;;;15.50;7.95;;;;;;;18.23;100.00;100534.63;5070258;28;20060;-65
2023/10/31 08:58:29;;;;;;;14.25;7.72;;;;;;;18.39;100.00;100534.69;5069599;28;20115;-69
2023/10/31 09:00:54;;;;;;;13.50;7.43;;;;;;;18.35;100.00;100531.19;5029465;28;20047;-66
2023/10/31 09:03:20;;;;;;;11.07;6.00;;;;;;;18.49;100.00;100527.78;5065710;28;20028;-65
2023/10/31 09:05:45;;;;;;;12.77;7.15;;;;;;;18.46;100.00;100522.56;5070287;28;20048;-64
2023/10/31 09:08:10;;;;;;;12.27;6.97;;;;;;;18.59;100.00;100517.41;5069133;28;20024;-65
2023/10/31 09:10:41;;;;;;;11.00;6.45;;;;;;;18.58;100.00;100509.56;5069380;28;20070;-64
2023/10/31 09:13:06;;;;;;;12.98;6.95;;;;;;;18.37;100.00;100466.75;5070051;28;20012;-67
2023/10/31 09:15:32;;;;;;;10.23;6.47;;;;;;;18.56;100.00;100490.34;5069028;28;20089;-67
2023/10/31 09:17:57;;;;;;;9.70;5.93;;;;;;;18.37;100.00;100438.00;5068609;28;20116;-66
2023/10/31 09:20:22;;;;;;;9.70;5.78;;;;;;;18.85;100.00;100487.84;5069338;28;20031;-65
2023/10/31 09:22:49;;;;;;;7.82;5.05;;;;;;;18.94;100.00;100475.69;5068993;28;20021;-66
2023/10/31 09:25:15;;;;;;;9.38;5.22;;;;;;;18.97;100.00;100473.97;5028702;28;20522;-67
2023/10/31 09:27:41;;;;;;;10.52;5.72;;;;;;;19.02;100.00;100467.00;5069375;28;20051;-64
2023/10/31 09:30:07;;;;;;;8.77;5.93;;;;;;;19.14;100.00;100462.66;5069398;28;20029;-65
2023/10/31 09:32:32;;;;;;;8.77;5.30;;;;;;;18.91;100.00;100395.47;5066860;28;20028;-67
2023/10/31 09:34:58;;;;;;;9.50;5.50;;;;;;;19.34;100.00;100460.94;5069015;28;20505;-67
2023/10/31 09:37:24;;;;;;;6.05;5.10;;;;;;;19.28;100.00;100423.41;5068552;28;20380;-66
2023/10/31 09:39:49;;;;;;;11.15;5.70;;;;;;;19.54;99.44;100440.00;5069688;28;20039;-65
2023/10/31 09:42:15;;;;;;;8.40;4.80;;;;;;;19.54;98.76;100429.53;5069085;28;20387;-64
2023/10/31 09:44:40;;;;;;;8.10;4.57;;;;;;;19.22;100.00;100406.81;5068574;28;20032;-66
2023/10/31 09:47:06;;;;;;;5.97;3.85;;;;;;;19.38;99.41;100412.94;5069488;28;20028;-65
2023/10/31 09:49:32;;;;;;;5.68;4.03;;;;;;;19.62;98.64;100412.94;5068638;28;20032;-65
2023/10/31 09:51:59;;;;;;;8.60;4.38;;;;;;;19.75;96.50;100421.63;5063824;28;20042;-66
2023/10/31 09:54:26;;;;;;;8.10;3.78;;;;;;;19.67;94.50;100340.47;5068234;28;20491;-66
2023/10/31 09:56:51;;;;;;;8.25;4.13;;;;;;;20.28;92.82;100399.69;5047300;28;20037;-66
2023/10/31 09:59:17;;;;;;;7.53;4.60;;;;;;;20.41;90.45;100397.88;5068730;28;20039;-68
2023/10/31 10:01:43;;;;;;;10.35;5.00;;;;;;;20.60;89.00;100403.00;5069084;28;20070;-66
2023/10/31 10:04:09;;;;;;;8.40;4.63;;;;;;;20.88;88.05;100402.91;5050930;28;20082;-67
2023/10/31 10:06:35;;;;;;;8.70;3.90;;;;;;;20.96;87.34;100396.72;5059464;28;20098;-67
2023/10/31 10:09:05;;;;;;;7.07;4.32;;;;;;;21.00;86.43;100402.81;5042724;28;20482;-65
2023/10/31 10:11:31;;;;;;;6.88;4.60;;;;;;;21.03;88.05;100373.06;5068512;28;20063;-67
2023/10/31 10:13:57;;;;;;;6.32;4.07;;;;;;;21.19;87.29;100366.78;5068538;28;20153;-66
2023/10/31 10:16:33;;;;;;;6.95;4.38;;;;;;;20.94;84.86;100317.13;5069120;28;20021;-66
2023/10/31 10:19:19;;;;;;;7.65;4.65;;;;;;;21.42;85.97;100363.06;5068304;28;20391;-67
2023/10/31 10:21:51;;;;;;;9.80;4.35;;;;;;;21.41;84.22;100351.72;5069062;28;20032;-67
2023/10/31 10:24:18;;;;;;;5.95;4.00;;;;;;;21.44;83.16;100349.03;5068115;28;20040;-65
2023/10/31 10:26:43;;;;;;;6.40;4.20;;;;;;;21.57;82.91;100348.94;5068443;28;20461;-66
2023/10/31 10:29:10;;;;;;;10.05;4.93;;;;;;;21.70;81.80;100349.72;5068753;28;20033;-66
2023/10/31 10:31:36;;;;;;;7.90;4.68;;;;;;;21.79;81.38;100336.44;5068597;28;20020;-67
2023/10/31 10:34:01;;;;;;;7.03;3.83;;;;;;;21.92;79.66;100326.66;5067412;28;20037;-66
2023/10/31 10:36:27;;;;;;;7.95;4.30;;;;;;;22.09;78.30;100332.59;5066653;28;20029;-65
2023/10/31 10:39:00;;;;;;;8.30;4.43;;;;;;;22.25;77.54;100348.16;5068116;28;20742;-66
2023/10/31 10:41:27;;;;;;;5.78;4.25;;;;;;;22.30;76.87;100338.44;5067716;28;20056;-68
2023/10/31 10:44:03;;;;;;;8.25;4.32;;;;;;;22.43;76.09;100340.06;5069018;28;20528;-67
2023/10/31 10:46:35;;;;;;;8.15;3.88;;;;;;;22.28;75.73;100277.09;5068371;28;20047;-72
2023/10/31 10:49:06;;;;;;;7.93;4.20;;;;;;;22.55;75.02;100307.41;5068341;28;20032;-65
2023/10/31 10:51:46;;;;;;;7.13;4.00;;;;;;;22.38;74.27;100277.88;5068433;28;20056;-65
2023/10/31 10:54:16;;;;;;;;;;;;;;;22.62;73.01;100308.22;5068451;28;20056;-66
2023/10/31 10:56:55;;;;;;;;;;;;;;;22.61;72.72;100312.59;5067264;28;19990;-67
2023/10/31 10:59:29;;;;;;;9.23;4.50;;;;;;;22.75;71.83;100301.88;5072096;28;20372;-65
2023/10/31 11:01:55;;;;;;;6.68;4.25;;;;;;;22.87;72.11;100292.88;5070791;28;20055;-66
2023/10/31 11:04:21;;;;;;;5.95;3.65;;;;;;;22.77;68.29;100278.16;5071462;28;20453;-66
2023/10/31 11:06:48;;;;;;;7.00;4.45;;;;;;;22.92;69.01;100284.91;5071168;28;20083;-68
2023/10/31 11:09:14;;;;;;;7.13;4.10;;;;;;;22.93;67.16;100258.56;5070085;28;20036;-67